sensor_id;sensor_type;location;lat;lon;timestamp;P1;durP1;ratioP1;P2;durP2;ratioP2
11092;SDS011;5600;50.864;6.102;2022-10-13T00:01:57;30.63;;;9.00;;
11092;SDS011;5600;50.864;6.102;2022-10-13T00:04:58;62.33;;;9.67;;
11092;SDS011;5600;50.864;6.102;2022-10-13T00:07:58;56.40;;;10.20;;
11092;SDS011;5600;50.864;6.102;2022-10-13T00:11:00;41.83;;;9.43;;
11092;SDS011;5600;50.864;6.102;2022-10-13T00:14:02;54.80;;;10.10;;
11092;SDS011;5600;50.864;6.102;2022-10-13T00:17:06;40.67;;;9.43;;
11092;SDS011;5600;50.864;6.102;2022-10-13T00:20:08;39.40;;;8.57;;
11092;SDS011;5600;50.864;6.102;2022-10-13T00:23:09;69.67;;;10.77;;
11092;SDS011;5600;50.864;6.102;2022-10-13T00:26:10;43.63;;;9.40;;
11092;SDS011;5600;50.864;6.102;2022-10-13T00:29:12;33.43;;;8.27;;
11092;SDS011;5600;50.864;6.102;2022-10-13T00:32:13;49.73;;;9.53;;
11092;SDS011;5600;50.864;6.102;2022-10-13T00:35:14;55.70;;;9.07;;
11092;SDS011;5600;50.864;6.102;2022-10-13T00:38:15;57.17;;;9.10;;
11092;SDS011;5600;50.864;6.102;2022-10-13T00:41:17;45.43;;;8.93;;
11092;SDS011;5600;50.864;6.102;2022-10-13T00:47:57;31.17;;;7.90;;
11092;SDS011;5600;50.864;6.102;2022-10-13T00:50:59;30.37;;;7.60;;
11092;SDS011;5600;50.864;6.102;2022-10-13T00:54:01;37.07;;;7.83;;
11092;SDS011;5600;50.864;6.102;2022-10-13T00:57:04;37.87;;;8.50;;
11092;SDS011;5600;50.864;6.102;2022-10-13T01:00:06;47.00;;;8.73;;
11092;SDS011;5600;50.864;6.102;2022-10-13T01:03:07;40.53;;;7.60;;
11092;SDS011;5600;50.864;6.102;2022-10-13T01:06:09;36.93;;;7.60;;
11092;SDS011;5600;50.864;6.102;2022-10-13T01:09:11;49.30;;;8.23;;
11092;SDS011;5600;50.864;6.102;2022-10-13T01:15:21;58.10;;;8.97;;
11092;SDS011;5600;50.864;6.102;2022-10-13T01:18:58;48.40;;;8.67;;
11092;SDS011;5600;50.864;6.102;2022-10-13T01:25:51;44.97;;;7.93;;
11092;SDS011;5600;50.864;6.102;2022-10-13T01:39:55;40.97;;;8.20;;
11092;SDS011;5600;50.864;6.102;2022-10-13T01:43:03;38.50;;;7.43;;
11092;SDS011;5600;50.864;6.102;2022-10-13T01:49:42;40.17;;;7.50;;
11092;SDS011;5600;50.864;6.102;2022-10-13T01:52:44;35.83;;;7.70;;
11092;SDS011;5600;50.864;6.102;2022-10-13T01:55:48;37.13;;;7.37;;
11092;SDS011;5600;50.864;6.102;2022-10-13T01:59:01;41.03;;;8.60;;
11092;SDS011;5600;50.864;6.102;2022-10-13T02:02:14;39.03;;;8.00;;
11092;SDS011;5600;50.864;6.102;2022-10-13T02:08:30;41.47;;;7.97;;
11092;SDS011;5600;50.864;6.102;2022-10-13T02:12:12;39.60;;;7.17;;
11092;SDS011;5600;50.864;6.102;2022-10-13T02:15:23;53.30;;;8.67;;
11092;SDS011;5600;50.864;6.102;2022-10-13T02:18:33;41.27;;;7.70;;
11092;SDS011;5600;50.864;6.102;2022-10-13T02:21:39;44.20;;;7.97;;
11092;SDS011;5600;50.864;6.102;2022-10-13T02:24:40;47.00;;;7.67;;
11092;SDS011;5600;50.864;6.102;2022-10-13T02:27:41;40.37;;;7.57;;
11092;SDS011;5600;50.864;6.102;2022-10-13T02:30:42;45.10;;;7.30;;
11092;SDS011;5600;50.864;6.102;2022-10-13T02:33:44;49.30;;;8.30;;
11092;SDS011;5600;50.864;6.102;2022-10-13T02:36:45;37.07;;;7.43;;
11092;SDS011;5600;50.864;6.102;2022-10-13T02:39:46;48.53;;;7.83;;
11092;SDS011;5600;50.864;6.102;2022-10-13T02:42:47;44.77;;;7.37;;
11092;SDS011;5600;50.864;6.102;2022-10-13T02:45:48;32.33;;;6.53;;
11092;SDS011;5600;50.864;6.102;2022-10-13T02:48:48;42.63;;;7.47;;
11092;SDS011;5600;50.864;6.102;2022-10-13T02:51:49;40.23;;;6.50;;
11092;SDS011;5600;50.864;6.102;2022-10-13T02:54:50;59.63;;;8.33;;
11092;SDS011;5600;50.864;6.102;2022-10-13T02:57:51;41.10;;;7.33;;
11092;SDS011;5600;50.864;6.102;2022-10-13T03:00:51;37.90;;;6.67;;
11092;SDS011;5600;50.864;6.102;2022-10-13T03:03:52;36.43;;;7.37;;
11092;SDS011;5600;50.864;6.102;2022-10-13T03:06:53;42.37;;;7.40;;
11092;SDS011;5600;50.864;6.102;2022-10-13T03:09:53;63.70;;;8.30;;
11092;SDS011;5600;50.864;6.102;2022-10-13T03:12:54;43.37;;;7.57;;
11092;SDS011;5600;50.864;6.102;2022-10-13T03:15:55;42.63;;;7.03;;
11092;SDS011;5600;50.864;6.102;2022-10-13T03:18:56;38.17;;;6.90;;
11092;SDS011;5600;50.864;6.102;2022-10-13T03:21:56;50.83;;;7.37;;
11092;SDS011;5600;50.864;6.102;2022-10-13T03:24:57;60.13;;;7.93;;
11092;SDS011;5600;50.864;6.102;2022-10-13T03:27:58;31.00;;;7.47;;
11092;SDS011;5600;50.864;6.102;2022-10-13T03:31:06;53.90;;;9.57;;
11092;SDS011;5600;50.864;6.102;2022-10-13T03:34:08;60.47;;;9.17;;
11092;SDS011;5600;50.864;6.102;2022-10-13T03:37:09;37.07;;;7.43;;
11092;SDS011;5600;50.864;6.102;2022-10-13T03:40:14;68.67;;;8.63;;
11092;SDS011;5600;50.864;6.102;2022-10-13T03:43:15;37.27;;;6.87;;
11092;SDS011;5600;50.864;6.102;2022-10-13T03:46:16;33.37;;;6.07;;
11092;SDS011;5600;50.864;6.102;2022-10-13T03:49:18;45.27;;;7.10;;
11092;SDS011;5600;50.864;6.102;2022-10-13T03:52:19;25.13;;;5.20;;
11092;SDS011;5600;50.864;6.102;2022-10-13T03:55:20;71.87;;;8.77;;
11092;SDS011;5600;50.864;6.102;2022-10-13T03:58:22;43.47;;;6.70;;
11092;SDS011;5600;50.864;6.102;2022-10-13T04:01:27;54.87;;;8.17;;
11092;SDS011;5600;50.864;6.102;2022-10-13T04:04:29;44.40;;;7.40;;
11092;SDS011;5600;50.864;6.102;2022-10-13T04:07:31;46.10;;;6.83;;
11092;SDS011;5600;50.864;6.102;2022-10-13T04:10:32;62.27;;;8.17;;
11092;SDS011;5600;50.864;6.102;2022-10-13T04:13:33;48.97;;;7.37;;
11092;SDS011;5600;50.864;6.102;2022-10-13T04:16:34;38.13;;;6.60;;
11092;SDS011;5600;50.864;6.102;2022-10-13T04:19:35;37.00;;;6.37;;
11092;SDS011;5600;50.864;6.102;2022-10-13T04:22:38;52.63;;;7.77;;
11092;SDS011;5600;50.864;6.102;2022-10-13T04:25:39;62.63;;;8.00;;
11092;SDS011;5600;50.864;6.102;2022-10-13T04:28:40;41.07;;;6.83;;
11092;SDS011;5600;50.864;6.102;2022-10-13T04:31:41;36.67;;;6.60;;
11092;SDS011;5600;50.864;6.102;2022-10-13T04:34:42;57.40;;;7.97;;
11092;SDS011;5600;50.864;6.102;2022-10-13T04:37:43;36.43;;;6.57;;
11092;SDS011;5600;50.864;6.102;2022-10-13T04:40:45;66.10;;;9.17;;
11092;SDS011;5600;50.864;6.102;2022-10-13T04:43:46;47.83;;;8.27;;
11092;SDS011;5600;50.864;6.102;2022-10-13T04:46:48;43.03;;;7.70;;
11092;SDS011;5600;50.864;6.102;2022-10-13T04:49:49;54.10;;;8.40;;
11092;SDS011;5600;50.864;6.102;2022-10-13T04:52:50;50.00;;;8.63;;
11092;SDS011;5600;50.864;6.102;2022-10-13T04:55:50;59.30;;;9.87;;
11092;SDS011;5600;50.864;6.102;2022-10-13T04:58:51;58.67;;;9.00;;
11092;SDS011;5600;50.864;6.102;2022-10-13T05:01:52;48.80;;;8.13;;
11092;SDS011;5600;50.864;6.102;2022-10-13T05:04:52;49.00;;;7.40;;
11092;SDS011;5600;50.864;6.102;2022-10-13T05:07:53;35.00;;;7.47;;
11092;SDS011;5600;50.864;6.102;2022-10-13T05:10:55;58.73;;;8.63;;
11092;SDS011;5600;50.864;6.102;2022-10-13T05:13:58;47.43;;;7.83;;
11092;SDS011;5600;50.864;6.102;2022-10-13T05:17:01;47.40;;;7.70;;
11092;SDS011;5600;50.864;6.102;2022-10-13T05:20:02;44.87;;;8.83;;
11092;SDS011;5600;50.864;6.102;2022-10-13T05:23:03;40.70;;;8.07;;
11092;SDS011;5600;50.864;6.102;2022-10-13T05:26:04;59.03;;;8.83;;
11092;SDS011;5600;50.864;6.102;2022-10-13T05:29:06;54.67;;;9.77;;
11092;SDS011;5600;50.864;6.102;2022-10-13T05:32:08;47.20;;;8.97;;
11092;SDS011;5600;50.864;6.102;2022-10-13T05:35:09;77.20;;;10.87;;
11092;SDS011;5600;50.864;6.102;2022-10-13T05:38:13;40.80;;;8.30;;
11092;SDS011;5600;50.864;6.102;2022-10-13T05:41:15;56.43;;;9.03;;
11092;SDS011;5600;50.864;6.102;2022-10-13T05:44:17;40.17;;;8.17;;
11092;SDS011;5600;50.864;6.102;2022-10-13T05:47:26;43.30;;;7.17;;
11092;SDS011;5600;50.864;6.102;2022-10-13T05:50:29;31.53;;;6.80;;
11092;SDS011;5600;50.864;6.102;2022-10-13T05:53:31;39.77;;;6.93;;
11092;SDS011;5600;50.864;6.102;2022-10-13T05:56:39;60.83;;;9.63;;
11092;SDS011;5600;50.864;6.102;2022-10-13T05:59:49;50.43;;;8.27;;
11092;SDS011;5600;50.864;6.102;2022-10-13T06:02:57;46.90;;;7.90;;
11092;SDS011;5600;50.864;6.102;2022-10-13T06:06:04;40.53;;;7.63;;
11092;SDS011;5600;50.864;6.102;2022-10-13T06:09:05;48.03;;;7.97;;
11092;SDS011;5600;50.864;6.102;2022-10-13T06:12:06;70.47;;;9.13;;
11092;SDS011;5600;50.864;6.102;2022-10-13T06:15:08;81.93;;;9.70;;
11092;SDS011;5600;50.864;6.102;2022-10-13T06:18:09;26.03;;;7.20;;
11092;SDS011;5600;50.864;6.102;2022-10-13T06:21:10;35.00;;;7.07;;
11092;SDS011;5600;50.864;6.102;2022-10-13T06:24:12;40.73;;;7.80;;
11092;SDS011;5600;50.864;6.102;2022-10-13T06:27:13;47.67;;;9.37;;
11092;SDS011;5600;50.864;6.102;2022-10-13T06:30:14;41.23;;;8.63;;
11092;SDS011;5600;50.864;6.102;2022-10-13T06:33:14;54.67;;;9.30;;
11092;SDS011;5600;50.864;6.102;2022-10-13T06:36:15;62.23;;;9.53;;
11092;SDS011;5600;50.864;6.102;2022-10-13T06:39:16;56.13;;;9.53;;
11092;SDS011;5600;50.864;6.102;2022-10-13T06:42:17;64.93;;;9.83;;
11092;SDS011;5600;50.864;6.102;2022-10-13T06:45:17;91.87;;;11.70;;
11092;SDS011;5600;50.864;6.102;2022-10-13T06:48:18;62.13;;;10.00;;
11092;SDS011;5600;50.864;6.102;2022-10-13T06:51:19;58.63;;;10.57;;
11092;SDS011;5600;50.864;6.102;2022-10-13T06:54:20;68.30;;;11.37;;
11092;SDS011;5600;50.864;6.102;2022-10-13T06:57:21;64.13;;;10.77;;
11092;SDS011;5600;50.864;6.102;2022-10-13T07:00:22;65.10;;;10.03;;
11092;SDS011;5600;50.864;6.102;2022-10-13T07:03:22;65.60;;;10.70;;
11092;SDS011;5600;50.864;6.102;2022-10-13T07:06:24;52.47;;;10.10;;
11092;SDS011;5600;50.864;6.102;2022-10-13T07:09:26;49.97;;;9.73;;
11092;SDS011;5600;50.864;6.102;2022-10-13T07:12:27;42.67;;;9.90;;
11092;SDS011;5600;50.864;6.102;2022-10-13T07:15:27;42.13;;;8.97;;
11092;SDS011;5600;50.864;6.102;2022-10-13T07:18:28;45.43;;;9.33;;
11092;SDS011;5600;50.864;6.102;2022-10-13T07:21:29;49.33;;;9.27;;
11092;SDS011;5600;50.864;6.102;2022-10-13T07:24:30;38.20;;;8.33;;
11092;SDS011;5600;50.864;6.102;2022-10-13T07:27:31;56.07;;;10.57;;
11092;SDS011;5600;50.864;6.102;2022-10-13T07:30:31;53.40;;;9.67;;
11092;SDS011;5600;50.864;6.102;2022-10-13T07:33:32;51.43;;;10.80;;
11092;SDS011;5600;50.864;6.102;2022-10-13T07:36:33;41.03;;;8.83;;
11092;SDS011;5600;50.864;6.102;2022-10-13T07:39:34;41.07;;;9.53;;
11092;SDS011;5600;50.864;6.102;2022-10-13T07:42:35;52.77;;;9.20;;
11092;SDS011;5600;50.864;6.102;2022-10-13T07:45:36;42.37;;;8.10;;
11092;SDS011;5600;50.864;6.102;2022-10-13T07:48:37;53.23;;;9.63;;
11092;SDS011;5600;50.864;6.102;2022-10-13T07:51:37;40.57;;;7.70;;
11092;SDS011;5600;50.864;6.102;2022-10-13T07:54:38;43.87;;;8.13;;
11092;SDS011;5600;50.864;6.102;2022-10-13T07:57:39;68.93;;;9.40;;
11092;SDS011;5600;50.864;6.102;2022-10-13T08:00:40;46.97;;;8.13;;
11092;SDS011;5600;50.864;6.102;2022-10-13T08:03:41;43.37;;;8.60;;
11092;SDS011;5600;50.864;6.102;2022-10-13T08:06:46;49.20;;;8.03;;
11092;SDS011;5600;50.864;6.102;2022-10-13T08:09:47;32.63;;;6.20;;
11092;SDS011;5600;50.864;6.102;2022-10-13T08:12:47;62.90;;;8.73;;
11092;SDS011;5600;50.864;6.102;2022-10-13T08:15:48;50.97;;;8.27;;
11092;SDS011;5600;50.864;6.102;2022-10-13T08:18:49;44.20;;;7.33;;
11092;SDS011;5600;50.864;6.102;2022-10-13T08:21:50;46.87;;;7.63;;
11092;SDS011;5600;50.864;6.102;2022-10-13T08:24:51;52.77;;;7.90;;
11092;SDS011;5600;50.864;6.102;2022-10-13T08:27:52;50.03;;;8.17;;
11092;SDS011;5600;50.864;6.102;2022-10-13T08:30:53;48.70;;;8.17;;
11092;SDS011;5600;50.864;6.102;2022-10-13T08:33:56;49.87;;;7.80;;
11092;SDS011;5600;50.864;6.102;2022-10-13T08:36:57;39.70;;;7.47;;
11092;SDS011;5600;50.864;6.102;2022-10-13T08:39:59;44.97;;;7.67;;
11092;SDS011;5600;50.864;6.102;2022-10-13T08:43:03;44.70;;;8.40;;
11092;SDS011;5600;50.864;6.102;2022-10-13T08:46:09;47.27;;;8.13;;
11092;SDS011;5600;50.864;6.102;2022-10-13T08:49:13;49.40;;;8.27;;
11092;SDS011;5600;50.864;6.102;2022-10-13T08:52:17;67.63;;;12.47;;
11092;SDS011;5600;50.864;6.102;2022-10-13T08:58:29;39.27;;;8.37;;
11092;SDS011;5600;50.864;6.102;2022-10-13T09:01:34;42.43;;;8.13;;
11092;SDS011;5600;50.864;6.102;2022-10-13T09:04:37;51.70;;;10.03;;
11092;SDS011;5600;50.864;6.102;2022-10-13T09:07:40;38.17;;;8.20;;
11092;SDS011;5600;50.864;6.102;2022-10-13T09:10:45;44.40;;;8.63;;
11092;SDS011;5600;50.864;6.102;2022-10-13T09:13:55;39.23;;;7.97;;
11092;SDS011;5600;50.864;6.102;2022-10-13T09:23:21;38.83;;;7.03;;
11092;SDS011;5600;50.864;6.102;2022-10-13T09:26:23;45.00;;;7.47;;
11092;SDS011;5600;50.864;6.102;2022-10-13T09:29:24;44.30;;;8.10;;
11092;SDS011;5600;50.864;6.102;2022-10-13T09:32:25;40.57;;;7.60;;
11092;SDS011;5600;50.864;6.102;2022-10-13T09:35:26;45.17;;;8.07;;
11092;SDS011;5600;50.864;6.102;2022-10-13T09:38:28;50.23;;;8.67;;
11092;SDS011;5600;50.864;6.102;2022-10-13T09:41:29;39.90;;;8.23;;
11092;SDS011;5600;50.864;6.102;2022-10-13T09:44:30;47.97;;;8.10;;
11092;SDS011;5600;50.864;6.102;2022-10-13T09:47:31;46.03;;;7.77;;
11092;SDS011;5600;50.864;6.102;2022-10-13T09:50:33;37.00;;;7.00;;
11092;SDS011;5600;50.864;6.102;2022-10-13T09:53:38;38.85;;;8.30;;
11092;SDS011;5600;50.864;6.102;2022-10-13T09:59:49;39.27;;;7.30;;
11092;SDS011;5600;50.864;6.102;2022-10-13T10:02:57;33.70;;;6.50;;
11092;SDS011;5600;50.864;6.102;2022-10-13T10:09:19;51.20;;;8.03;;
11092;SDS011;5600;50.864;6.102;2022-10-13T10:12:25;41.60;;;8.10;;
11092;SDS011;5600;50.864;6.102;2022-10-13T10:15:36;47.07;;;7.80;;
11092;SDS011;5600;50.864;6.102;2022-10-13T10:18:44;42.38;;;7.78;;
11092;SDS011;5600;50.864;6.102;2022-10-13T10:32:16;31.57;;;7.00;;
11092;SDS011;5600;50.864;6.102;2022-10-13T10:41:38;48.10;;;8.13;;
11092;SDS011;5600;50.864;6.102;2022-10-13T10:44:47;44.63;;;7.87;;
11092;SDS011;5600;50.864;6.102;2022-10-13T10:47:52;46.08;;;8.02;;
11092;SDS011;5600;50.864;6.102;2022-10-13T10:51:00;48.10;;;7.13;;
11092;SDS011;5600;50.864;6.102;2022-10-13T10:57:21;41.90;;;7.17;;
11092;SDS011;5600;50.864;6.102;2022-10-13T11:03:53;45.23;;;7.93;;
11092;SDS011;5600;50.864;6.102;2022-10-13T11:10:21;37.58;;;7.07;;
11092;SDS011;5600;50.864;6.102;2022-10-13T11:13:23;42.60;;;7.40;;
11092;SDS011;5600;50.864;6.102;2022-10-13T11:19:46;62.40;;;8.63;;
11092;SDS011;5600;50.864;6.102;2022-10-13T11:29:18;124.97;;;12.67;;
11092;SDS011;5600;50.864;6.102;2022-10-13T11:32:43;119.67;;;12.83;;
11092;SDS011;5600;50.864;6.102;2022-10-13T11:35:54;75.57;;;11.00;;
11092;SDS011;5600;50.864;6.102;2022-10-13T11:42:24;99.00;;;12.35;;
11092;SDS011;5600;50.864;6.102;2022-10-13T11:45:50;47.58;;;8.35;;
11092;SDS011;5600;50.864;6.102;2022-10-13T11:49:36;53.53;;;8.60;;
11092;SDS011;5600;50.864;6.102;2022-10-13T11:56:33;71.63;;;9.85;;
11092;SDS011;5600;50.864;6.102;2022-10-13T11:59:44;76.85;;;10.80;;
11092;SDS011;5600;50.864;6.102;2022-10-13T12:02:50;81.43;;;10.70;;
11092;SDS011;5600;50.864;6.102;2022-10-13T12:05:54;85.03;;;10.75;;
11092;SDS011;5600;50.864;6.102;2022-10-13T12:09:14;39.00;;;7.38;;
11092;SDS011;5600;50.864;6.102;2022-10-13T12:12:18;47.42;;;7.63;;
11092;SDS011;5600;50.864;6.102;2022-10-13T12:15:40;81.03;;;10.27;;
11092;SDS011;5600;50.864;6.102;2022-10-13T12:18:42;51.63;;;7.15;;
11092;SDS011;5600;50.864;6.102;2022-10-13T12:21:50;36.83;;;7.05;;
11092;SDS011;5600;50.864;6.102;2022-10-13T12:24:58;55.60;;;8.30;;
11092;SDS011;5600;50.864;6.102;2022-10-13T12:28:04;63.28;;;7.57;;
11092;SDS011;5600;50.864;6.102;2022-10-13T12:31:14;32.55;;;6.07;;
11092;SDS011;5600;50.864;6.102;2022-10-13T12:34:25;35.20;;;5.88;;
11092;SDS011;5600;50.864;6.102;2022-10-13T12:37:29;46.47;;;7.93;;
11092;SDS011;5600;50.864;6.102;2022-10-13T12:40:32;46.53;;;6.93;;
11092;SDS011;5600;50.864;6.102;2022-10-13T12:43:34;38.90;;;8.75;;
11092;SDS011;5600;50.864;6.102;2022-10-13T12:46:39;45.63;;;8.40;;
11092;SDS011;5600;50.864;6.102;2022-10-13T12:49:40;49.03;;;7.93;;
11092;SDS011;5600;50.864;6.102;2022-10-13T12:52:41;45.95;;;7.30;;
11092;SDS011;5600;50.864;6.102;2022-10-13T12:55:46;42.75;;;7.63;;
11092;SDS011;5600;50.864;6.102;2022-10-13T12:58:58;40.90;;;6.97;;
11092;SDS011;5600;50.864;6.102;2022-10-13T13:02:00;44.40;;;7.82;;
11092;SDS011;5600;50.864;6.102;2022-10-13T13:05:27;41.13;;;7.38;;
11092;SDS011;5600;50.864;6.102;2022-10-13T13:08:37;35.10;;;6.35;;
11092;SDS011;5600;50.864;6.102;2022-10-13T13:11:40;45.95;;;7.22;;
11092;SDS011;5600;50.864;6.102;2022-10-13T13:14:45;47.42;;;7.43;;
11092;SDS011;5600;50.864;6.102;2022-10-13T13:17:49;49.15;;;8.82;;
11092;SDS011;5600;50.864;6.102;2022-10-13T13:20:51;47.95;;;9.15;;
11092;SDS011;5600;50.864;6.102;2022-10-13T13:23:52;44.70;;;8.10;;
11092;SDS011;5600;50.864;6.102;2022-10-13T13:26:53;41.72;;;8.25;;
11092;SDS011;5600;50.864;6.102;2022-10-13T13:29:55;47.88;;;7.50;;
11092;SDS011;5600;50.864;6.102;2022-10-13T13:32:56;44.47;;;7.38;;
11092;SDS011;5600;50.864;6.102;2022-10-13T13:35:56;43.72;;;7.95;;
11092;SDS011;5600;50.864;6.102;2022-10-13T13:38:57;44.55;;;7.72;;
11092;SDS011;5600;50.864;6.102;2022-10-13T13:41:58;50.22;;;7.38;;
11092;SDS011;5600;50.864;6.102;2022-10-13T13:44:59;64.95;;;8.65;;
11092;SDS011;5600;50.864;6.102;2022-10-13T13:48:00;50.00;;;7.65;;
11092;SDS011;5600;50.864;6.102;2022-10-13T13:51:02;76.05;;;9.77;;
11092;SDS011;5600;50.864;6.102;2022-10-13T13:54:03;89.03;;;10.20;;
11092;SDS011;5600;50.864;6.102;2022-10-13T13:57:05;103.25;;;10.40;;
11092;SDS011;5600;50.864;6.102;2022-10-13T14:00:06;45.35;;;7.53;;
11092;SDS011;5600;50.864;6.102;2022-10-13T14:03:11;93.65;;;10.05;;
11092;SDS011;5600;50.864;6.102;2022-10-13T14:06:19;104.43;;;11.25;;
11092;SDS011;5600;50.864;6.102;2022-10-13T14:09:22;84.40;;;9.82;;
11092;SDS011;5600;50.864;6.102;2022-10-13T14:12:22;61.53;;;8.10;;
11092;SDS011;5600;50.864;6.102;2022-10-13T14:15:24;44.22;;;8.10;;
11092;SDS011;5600;50.864;6.102;2022-10-13T14:18:25;86.65;;;11.18;;
11092;SDS011;5600;50.864;6.102;2022-10-13T14:21:26;63.30;;;9.02;;
11092;SDS011;5600;50.864;6.102;2022-10-13T14:24:30;43.33;;;7.38;;
11092;SDS011;5600;50.864;6.102;2022-10-13T14:27:34;68.85;;;8.90;;
11092;SDS011;5600;50.864;6.102;2022-10-13T14:30:39;53.95;;;7.53;;
11092;SDS011;5600;50.864;6.102;2022-10-13T14:33:40;90.28;;;10.18;;
11092;SDS011;5600;50.864;6.102;2022-10-13T14:36:42;64.47;;;9.10;;
11092;SDS011;5600;50.864;6.102;2022-10-13T14:39:42;51.42;;;7.32;;
11092;SDS011;5600;50.864;6.102;2022-10-13T14:42:43;94.47;;;10.07;;
11092;SDS011;5600;50.864;6.102;2022-10-13T14:45:48;61.65;;;7.88;;
11092;SDS011;5600;50.864;6.102;2022-10-13T14:48:50;48.40;;;7.80;;
11092;SDS011;5600;50.864;6.102;2022-10-13T14:51:50;98.85;;;10.80;;
11092;SDS011;5600;50.864;6.102;2022-10-13T14:54:51;82.82;;;9.25;;
11092;SDS011;5600;50.864;6.102;2022-10-13T14:57:52;55.63;;;8.03;;
11092;SDS011;5600;50.864;6.102;2022-10-13T15:00:53;92.45;;;10.18;;
11092;SDS011;5600;50.864;6.102;2022-10-13T15:03:54;95.15;;;9.73;;
11092;SDS011;5600;50.864;6.102;2022-10-13T15:06:55;61.03;;;8.02;;
11092;SDS011;5600;50.864;6.102;2022-10-13T15:09:57;49.05;;;6.82;;
11092;SDS011;5600;50.864;6.102;2022-10-13T15:12:58;86.38;;;9.27;;
11092;SDS011;5600;50.864;6.102;2022-10-13T15:15:59;65.80;;;8.23;;
11092;SDS011;5600;50.864;6.102;2022-10-13T15:19:01;51.55;;;7.03;;
11092;SDS011;5600;50.864;6.102;2022-10-13T15:22:02;94.55;;;9.73;;
11092;SDS011;5600;50.864;6.102;2022-10-13T15:25:03;118.00;;;10.87;;
11092;SDS011;5600;50.864;6.102;2022-10-13T15:28:08;71.70;;;8.45;;
11092;SDS011;5600;50.864;6.102;2022-10-13T15:31:10;34.75;;;6.53;;
11092;SDS011;5600;50.864;6.102;2022-10-13T15:34:12;32.20;;;7.03;;
11092;SDS011;5600;50.864;6.102;2022-10-13T15:37:13;42.93;;;10.37;;
11092;SDS011;5600;50.864;6.102;2022-10-13T15:40:14;50.63;;;8.40;;
11092;SDS011;5600;50.864;6.102;2022-10-13T15:43:15;42.28;;;8.40;;
11092;SDS011;5600;50.864;6.102;2022-10-13T15:46:16;56.07;;;9.03;;
11092;SDS011;5600;50.864;6.102;2022-10-13T15:49:23;44.50;;;8.67;;
11092;SDS011;5600;50.864;6.102;2022-10-13T15:52:25;61.03;;;10.33;;
11092;SDS011;5600;50.864;6.102;2022-10-13T15:55:26;48.03;;;8.97;;
11092;SDS011;5600;50.864;6.102;2022-10-13T15:58:27;41.80;;;9.40;;
11092;SDS011;5600;50.864;6.102;2022-10-13T16:01:28;49.03;;;9.60;;
11092;SDS011;5600;50.864;6.102;2022-10-13T16:04:30;62.13;;;10.63;;
11092;SDS011;5600;50.864;6.102;2022-10-13T16:07:31;46.70;;;10.93;;
11092;SDS011;5600;50.864;6.102;2022-10-13T16:10:31;45.43;;;11.07;;
11092;SDS011;5600;50.864;6.102;2022-10-13T16:13:32;62.80;;;11.80;;
11092;SDS011;5600;50.864;6.102;2022-10-13T16:16:33;44.60;;;10.87;;
11092;SDS011;5600;50.864;6.102;2022-10-13T16:19:34;56.17;;;11.03;;
11092;SDS011;5600;50.864;6.102;2022-10-13T16:22:35;62.77;;;10.37;;
11092;SDS011;5600;50.864;6.102;2022-10-13T16:25:38;48.10;;;9.03;;
11092;SDS011;5600;50.864;6.102;2022-10-13T16:28:39;69.63;;;12.10;;
11092;SDS011;5600;50.864;6.102;2022-10-13T16:31:40;42.13;;;10.43;;
11092;SDS011;5600;50.864;6.102;2022-10-13T16:34:41;50.33;;;11.07;;
11092;SDS011;5600;50.864;6.102;2022-10-13T16:37:42;40.23;;;10.07;;
11092;SDS011;5600;50.864;6.102;2022-10-13T16:40:43;42.17;;;11.40;;
11092;SDS011;5600;50.864;6.102;2022-10-13T16:43:44;56.67;;;13.90;;
11092;SDS011;5600;50.864;6.102;2022-10-13T16:46:46;40.60;;;12.87;;
11092;SDS011;5600;50.864;6.102;2022-10-13T16:49:48;44.37;;;13.10;;
11092;SDS011;5600;50.864;6.102;2022-10-13T16:52:51;59.13;;;13.03;;
11092;SDS011;5600;50.864;6.102;2022-10-13T16:55:51;46.50;;;11.70;;
11092;SDS011;5600;50.864;6.102;2022-10-13T16:58:56;36.53;;;9.97;;
11092;SDS011;5600;50.864;6.102;2022-10-13T17:01:58;36.17;;;10.67;;
11092;SDS011;5600;50.864;6.102;2022-10-13T17:04:59;47.57;;;11.63;;
11092;SDS011;5600;50.864;6.102;2022-10-13T17:07:59;66.83;;;12.30;;
11092;SDS011;5600;50.864;6.102;2022-10-13T17:11:00;45.73;;;11.50;;
11092;SDS011;5600;50.864;6.102;2022-10-13T17:14:01;48.83;;;12.20;;
11092;SDS011;5600;50.864;6.102;2022-10-13T17:17:05;43.40;;;11.23;;
11092;SDS011;5600;50.864;6.102;2022-10-13T17:20:06;57.73;;;12.17;;
11092;SDS011;5600;50.864;6.102;2022-10-13T17:23:07;42.47;;;9.07;;
11092;SDS011;5600;50.864;6.102;2022-10-13T17:26:09;50.50;;;9.10;;
11092;SDS011;5600;50.864;6.102;2022-10-13T17:29:11;44.07;;;8.23;;
11092;SDS011;5600;50.864;6.102;2022-10-13T17:32:12;40.53;;;7.50;;
11092;SDS011;5600;50.864;6.102;2022-10-13T17:35:13;99.00;;;9.63;;
11092;SDS011;5600;50.864;6.102;2022-10-13T17:38:17;39.07;;;6.13;;
11092;SDS011;5600;50.864;6.102;2022-10-13T17:41:18;52.87;;;6.73;;
11092;SDS011;5600;50.864;6.102;2022-10-13T17:44:22;43.10;;;5.60;;
11092;SDS011;5600;50.864;6.102;2022-10-13T17:47:22;38.73;;;4.93;;
11092;SDS011;5600;50.864;6.102;2022-10-13T17:50:23;39.00;;;5.07;;
11092;SDS011;5600;50.864;6.102;2022-10-13T17:53:25;41.57;;;5.20;;
11092;SDS011;5600;50.864;6.102;2022-10-13T17:56:25;37.40;;;4.97;;
11092;SDS011;5600;50.864;6.102;2022-10-13T17:59:26;26.83;;;4.30;;
11092;SDS011;5600;50.864;6.102;2022-10-13T18:02:27;30.80;;;4.73;;
11092;SDS011;5600;50.864;6.102;2022-10-13T18:05:28;37.70;;;5.37;;
11092;SDS011;5600;50.864;6.102;2022-10-13T18:08:31;41.17;;;5.20;;
11092;SDS011;5600;50.864;6.102;2022-10-13T18:11:33;52.90;;;6.27;;
11092;SDS011;5600;50.864;6.102;2022-10-13T18:14:35;43.57;;;5.90;;
11092;SDS011;5600;50.864;6.102;2022-10-13T18:17:35;51.33;;;6.30;;
11092;SDS011;5600;50.864;6.102;2022-10-13T18:20:36;33.50;;;5.10;;
11092;SDS011;5600;50.864;6.102;2022-10-13T18:23:40;69.67;;;7.30;;
11092;SDS011;5600;50.864;6.102;2022-10-13T18:26:41;44.30;;;5.97;;
11092;SDS011;5600;50.864;6.102;2022-10-13T18:29:42;44.43;;;5.87;;
11092;SDS011;5600;50.864;6.102;2022-10-13T18:32:43;47.80;;;6.23;;
11092;SDS011;5600;50.864;6.102;2022-10-13T18:35:45;47.17;;;6.63;;
11092;SDS011;5600;50.864;6.102;2022-10-13T18:38:46;33.80;;;5.93;;
11092;SDS011;5600;50.864;6.102;2022-10-13T18:41:47;31.63;;;5.47;;
11092;SDS011;5600;50.864;6.102;2022-10-13T18:44:49;31.53;;;5.47;;
11092;SDS011;5600;50.864;6.102;2022-10-13T18:47:50;52.10;;;6.90;;
11092;SDS011;5600;50.864;6.102;2022-10-13T18:50:51;37.87;;;6.30;;
11092;SDS011;5600;50.864;6.102;2022-10-13T18:53:51;47.87;;;6.77;;
11092;SDS011;5600;50.864;6.102;2022-10-13T18:56:54;39.83;;;6.30;;
11092;SDS011;5600;50.864;6.102;2022-10-13T18:59:55;40.43;;;6.57;;
11092;SDS011;5600;50.864;6.102;2022-10-13T19:03:02;41.20;;;6.77;;
11092;SDS011;5600;50.864;6.102;2022-10-13T19:06:03;37.23;;;6.57;;
11092;SDS011;5600;50.864;6.102;2022-10-13T19:09:06;34.00;;;6.13;;
11092;SDS011;5600;50.864;6.102;2022-10-13T19:12:09;58.70;;;8.40;;
11092;SDS011;5600;50.864;6.102;2022-10-13T19:15:10;94.27;;;10.00;;
11092;SDS011;5600;50.864;6.102;2022-10-13T19:18:11;42.60;;;7.43;;
11092;SDS011;5600;50.864;6.102;2022-10-13T19:21:14;35.43;;;7.37;;
11092;SDS011;5600;50.864;6.102;2022-10-13T19:24:15;36.77;;;6.90;;
11092;SDS011;5600;50.864;6.102;2022-10-13T19:27:15;46.47;;;7.47;;
11092;SDS011;5600;50.864;6.102;2022-10-13T19:30:16;35.43;;;7.23;;
11092;SDS011;5600;50.864;6.102;2022-10-13T19:33:17;38.17;;;7.60;;
11092;SDS011;5600;50.864;6.102;2022-10-13T19:36:26;40.60;;;7.80;;
11092;SDS011;5600;50.864;6.102;2022-10-13T19:39:33;44.47;;;8.40;;
11092;SDS011;5600;50.864;6.102;2022-10-13T19:42:34;33.47;;;7.57;;
11092;SDS011;5600;50.864;6.102;2022-10-13T19:45:35;34.50;;;7.50;;
11092;SDS011;5600;50.864;6.102;2022-10-13T19:48:40;41.17;;;7.83;;